createdAt,value
2022-09-25T00:01:00.496Z,18.09
2022-09-25T00:03:28.427Z,18.08
2022-09-25T00:06:02.139Z,18.08
2022-09-25T00:08:29.038Z,18.09
2022-09-25T00:10:55.806Z,17.99
2022-09-25T00:13:22.826Z,18.06
2022-09-25T00:15:55.095Z,18.02
2022-09-25T00:18:41.798Z,18.03
2022-09-25T00:21:11.892Z,18.00
2022-09-25T00:23:39.670Z,18.03
2022-09-25T00:26:06.338Z,18.02
2022-09-25T00:28:33.209Z,18.04
2022-09-25T00:30:59.959Z,18.01
2022-09-25T00:33:26.551Z,17.99
2022-09-25T00:35:53.013Z,18.02
2022-09-25T00:38:19.697Z,18.01
2022-09-25T00:40:46.234Z,18.02
2022-09-25T00:43:37.097Z,17.99
2022-09-25T00:46:07.502Z,18.01
2022-09-25T00:48:34.048Z,17.95
2022-09-25T00:51:01.117Z,17.94
2022-09-25T00:53:37.544Z,17.93
2022-09-25T00:56:05.460Z,17.94
2022-09-25T00:58:33.629Z,17.90
2022-09-25T01:01:00.428Z,17.91
2022-09-25T01:03:27.460Z,17.91
2022-09-25T01:05:54.717Z,17.93
2022-09-25T01:08:26.221Z,17.92
2022-09-25T01:10:52.827Z,17.88
2022-09-25T01:13:20.270Z,17.91
2022-09-25T01:15:53.946Z,17.93
2022-09-25T01:18:31.145Z,17.92
2022-09-25T01:20:57.601Z,17.93
2022-09-25T01:23:59.600Z,17.92
2022-09-25T01:26:44.300Z,17.93
2022-09-25T01:29:19.321Z,17.91
2022-09-25T01:32:04.359Z,17.91
2022-09-25T01:34:49.509Z,17.91
2022-09-25T01:37:40.872Z,17.90
2022-09-25T01:40:13.302Z,17.88
2022-09-25T01:42:49.136Z,17.88
2022-09-25T01:45:21.070Z,17.88
2022-09-25T01:47:50.249Z,17.88
2022-09-25T01:50:23.464Z,17.83
2022-09-25T01:52:53.403Z,17.83
2022-09-25T01:55:19.964Z,17.87
2022-09-25T01:58:10.938Z,17.83
2022-09-25T02:00:41.315Z,17.82
2022-09-25T02:03:22.488Z,17.83
2022-09-25T02:05:52.126Z,17.83
2022-09-25T02:08:26.102Z,17.81
2022-09-25T02:10:58.502Z,17.78
2022-09-25T02:13:29.698Z,17.80
2022-09-25T02:16:05.483Z,17.80
2022-09-25T02:18:50.615Z,17.79
2022-09-25T02:21:35.635Z,17.77
2022-09-25T02:24:19.701Z,17.77
2022-09-25T02:26:46.546Z,17.78
2022-09-25T02:29:15.420Z,17.76
2022-09-25T02:31:48.591Z,17.76
2022-09-25T02:34:15.540Z,17.73
2022-09-25T02:36:43.157Z,17.73
2022-09-25T02:39:11.423Z,17.74
2022-09-25T02:41:48.383Z,17.74
2022-09-25T02:44:42.202Z,17.73
2022-09-25T02:47:42.690Z,17.74
2022-09-25T02:50:16.952Z,17.75
2022-09-25T02:52:58.796Z,17.74
2022-09-25T02:55:31.246Z,17.73
2022-09-25T02:58:13.547Z,17.73
2022-09-25T03:00:42.451Z,17.71
2022-09-25T03:03:11.457Z,17.74
2022-09-25T03:05:38.680Z,17.64
2022-09-25T03:08:23.946Z,17.72
2022-09-25T03:10:50.585Z,17.73
2022-09-25T03:13:19.825Z,17.73
2022-09-25T03:15:50.783Z,17.71
2022-09-25T03:18:18.197Z,17.59
2022-09-25T03:20:45.252Z,17.70
2022-09-25T03:23:11.825Z,17.70
2022-09-25T03:25:38.728Z,17.70
2022-09-25T03:28:12.184Z,17.67
2022-09-25T03:30:40.804Z,17.68
2022-09-25T03:33:10.360Z,17.68
2022-09-25T03:35:38.078Z,17.66
2022-09-25T03:38:04.829Z,17.67
2022-09-25T03:40:32.624Z,17.65
2022-09-25T03:42:59.495Z,17.65
2022-09-25T03:45:26.038Z,17.64
2022-09-25T03:47:52.616Z,17.66
2022-09-25T03:50:19.175Z,17.62
2022-09-25T03:52:45.693Z,17.56
2022-09-25T03:55:12.246Z,17.61
2022-09-25T03:57:39.151Z,17.57
2022-09-25T04:00:06.867Z,17.56
2022-09-25T04:02:39.633Z,17.58
2022-09-25T04:05:07.094Z,17.58
2022-09-25T04:07:33.802Z,17.60
2022-09-25T04:10:00.365Z,17.56
2022-09-25T04:12:26.961Z,17.56
2022-09-25T04:14:54.900Z,17.55
2022-09-25T04:17:21.403Z,17.57
2022-09-25T04:19:47.938Z,17.55
2022-09-25T04:22:14.439Z,17.55
2022-09-25T04:24:49.834Z,17.54
2022-09-25T04:27:19.102Z,17.54
2022-09-25T04:29:46.645Z,17.55
2022-09-25T04:32:32.551Z,17.53
2022-09-25T04:34:59.044Z,17.56
2022-09-25T04:37:26.254Z,17.59
2022-09-25T04:39:54.442Z,17.55
2022-09-25T04:42:24.441Z,17.54
2022-09-25T04:44:53.055Z,17.55
2022-09-25T04:47:23.379Z,17.54
2022-09-25T04:49:50.121Z,17.39
2022-09-25T04:52:18.655Z,17.58
2022-09-25T04:54:45.378Z,17.56
2022-09-25T04:57:27.605Z,17.56
2022-09-25T05:00:05.998Z,17.56
2022-09-25T05:02:32.842Z,17.55
2022-09-25T05:04:59.515Z,17.52
2022-09-25T05:07:26.057Z,17.49
2022-09-25T05:09:52.523Z,17.44
2022-09-25T05:12:19.991Z,17.48
2022-09-25T05:14:46.558Z,17.49
2022-09-25T05:17:13.062Z,17.42
2022-09-25T05:19:39.852Z,17.46
2022-09-25T05:22:06.408Z,17.48
2022-09-25T05:24:32.890Z,17.44
2022-09-25T05:26:59.543Z,17.43
2022-09-25T05:29:26.096Z,17.38
2022-09-25T05:31:52.755Z,17.43
2022-09-25T05:34:19.352Z,17.46
2022-09-25T05:36:45.891Z,17.48
2022-09-25T05:39:14.623Z,17.45
2022-09-25T05:41:41.396Z,17.51
2022-09-25T05:44:09.701Z,17.50
2022-09-25T05:46:36.732Z,17.55
2022-09-25T05:49:03.711Z,17.56
2022-09-25T05:51:30.300Z,17.55
2022-09-25T05:53:56.772Z,17.61
2022-09-25T05:56:24.718Z,17.63
2022-09-25T05:58:52.778Z,17.62
2022-09-25T06:01:19.757Z,17.67
2022-09-25T06:03:46.495Z,17.71
2022-09-25T06:06:13.078Z,17.77
2022-09-25T06:08:39.637Z,17.79
2022-09-25T06:11:06.598Z,17.87
2022-09-25T06:13:34.613Z,17.85
2022-09-25T06:16:01.938Z,17.93
2022-09-25T06:18:28.461Z,17.93
2022-09-25T06:21:03.702Z,17.87
2022-09-25T06:23:30.711Z,17.90
2022-09-25T06:26:05.195Z,17.89
2022-09-25T06:28:32.666Z,17.91
2022-09-25T06:31:03.829Z,17.93
2022-09-25T06:33:30.928Z,17.95
2022-09-25T06:35:57.522Z,17.98
2022-09-25T06:38:25.257Z,18.03
2022-09-25T06:40:51.950Z,18.07
2022-09-25T06:43:18.631Z,18.09
2022-09-25T06:45:47.827Z,18.17
2022-09-25T06:48:18.278Z,18.28
2022-09-25T06:50:51.827Z,18.38
2022-09-25T06:53:20.261Z,18.43
2022-09-25T06:55:46.808Z,18.42
2022-09-25T06:58:22.081Z,18.40
2022-09-25T07:00:49.988Z,18.38
2022-09-25T07:03:35.667Z,18.37
2022-09-25T07:06:04.036Z,18.38
2022-09-25T07:08:31.029Z,18.43
2022-09-25T07:10:58.796Z,18.43
2022-09-25T07:13:28.664Z,18.41
2022-09-25T07:16:06.851Z,18.41
2022-09-25T07:18:33.956Z,18.43
2022-09-25T07:21:06.365Z,18.45
2022-09-25T07:23:33.743Z,18.43
2022-09-25T07:26:07.459Z,18.41
2022-09-25T07:28:34.532Z,18.48
2022-09-25T07:31:10.970Z,18.42
2022-09-25T07:33:37.935Z,18.40
2022-09-25T07:36:04.759Z,18.38
2022-09-25T07:38:31.316Z,18.42
2022-09-25T07:40:58.104Z,18.47
2022-09-25T07:43:24.800Z,18.56
2022-09-25T07:45:54.707Z,18.65
2022-09-25T07:48:21.544Z,18.82
2022-09-25T07:50:50.889Z,18.89
2022-09-25T07:53:20.385Z,18.93
2022-09-25T07:55:47.247Z,18.90
2022-09-25T07:58:14.958Z,18.79
2022-09-25T08:00:44.378Z,19.12
2022-09-25T08:03:11.458Z,19.15
2022-09-25T08:05:37.986Z,19.13
2022-09-25T08:08:04.545Z,19.18
2022-09-25T08:10:32.059Z,19.37
2022-09-25T08:12:58.649Z,19.19
2022-09-25T08:15:25.810Z,19.09
2022-09-25T08:17:52.619Z,19.39
2022-09-25T08:20:19.211Z,19.64
2022-09-25T08:22:45.756Z,19.77
2022-09-25T08:25:12.949Z,19.79
2022-09-25T08:27:40.968Z,19.97
2022-09-25T08:30:09.451Z,19.99
2022-09-25T08:32:36.538Z,20.08
2022-09-25T08:35:04.227Z,20.10
2022-09-25T08:37:33.532Z,20.17
2022-09-25T08:40:00.449Z,20.25
2022-09-25T08:42:32.148Z,20.33
2022-09-25T08:45:21.883Z,20.49
2022-09-25T08:48:11.748Z,20.78
2022-09-25T08:50:38.319Z,20.78
2022-09-25T08:53:07.926Z,20.13
2022-09-25T08:55:54.938Z,19.66
2022-09-25T08:58:25.320Z,19.30
2022-09-25T09:00:57.775Z,19.04
2022-09-25T09:03:25.666Z,19.52
2022-09-25T09:05:59.254Z,19.14
2022-09-25T09:08:28.411Z,19.16
2022-09-25T09:10:59.405Z,19.66
2022-09-25T09:13:31.416Z,20.11
2022-09-25T09:16:00.939Z,20.35
2022-09-25T09:18:29.409Z,20.42
2022-09-25T09:21:01.440Z,20.49
2022-09-25T09:23:39.443Z,20.58
2022-09-25T09:26:16.224Z,20.62
2022-09-25T09:29:20.786Z,20.69
2022-09-25T09:31:58.080Z,20.44
2022-09-25T09:34:53.186Z,20.40
2022-09-25T09:37:22.981Z,20.34
2022-09-25T09:40:02.986Z,20.29
2022-09-25T09:42:50.325Z,20.44
2022-09-25T09:45:24.424Z,20.38
2022-09-25T09:48:02.069Z,20.22
2022-09-25T09:50:43.827Z,20.22
2022-09-25T09:53:29.242Z,20.24
2022-09-25T09:56:00.327Z,20.38
2022-09-25T09:58:45.717Z,20.69
2022-09-25T10:01:36.752Z,20.68
2022-09-25T10:04:07.625Z,20.87
2022-09-25T10:06:39.186Z,21.00
2022-09-25T10:09:06.854Z,21.02
2022-09-25T10:11:33.900Z,21.13
2022-09-25T10:14:03.601Z,21.07
2022-09-25T10:16:30.254Z,20.83
2022-09-25T10:19:19.845Z,20.83
2022-09-25T10:21:50.109Z,20.78
2022-09-25T10:24:54.943Z,20.77
2022-09-25T10:27:32.326Z,20.76
2022-09-25T10:30:10.784Z,20.94
2022-09-25T10:32:51.282Z,21.01
2022-09-25T10:35:27.187Z,20.95
2022-09-25T10:37:58.731Z,20.79
2022-09-25T10:40:27.162Z,20.75
2022-09-25T10:43:04.457Z,20.69
2022-09-25T10:45:35.932Z,20.64
2022-09-25T10:48:47.381Z,20.68
2022-09-25T10:51:21.247Z,20.68
2022-09-25T10:53:52.872Z,20.76
2022-09-25T10:56:22.420Z,20.68
2022-09-25T10:59:01.025Z,20.82
2022-09-25T11:01:35.369Z,20.84
2022-09-25T11:04:05.875Z,20.90
2022-09-25T11:06:34.677Z,20.84
2022-09-25T11:09:10.857Z,20.81
2022-09-25T11:11:39.173Z,20.78
2022-09-25T11:14:08.236Z,20.86
2022-09-25T11:17:02.076Z,20.90
2022-09-25T11:19:31.175Z,20.95
2022-09-25T11:22:10.199Z,21.22
2022-09-25T11:24:40.507Z,21.39
2022-09-25T11:27:06.913Z,21.52
2022-09-25T11:29:42.947Z,21.59
2022-09-25T11:32:26.470Z,21.61
2022-09-25T11:34:55.993Z,21.51
2022-09-25T11:37:44.380Z,21.55
2022-09-25T11:40:29.506Z,21.83
2022-09-25T11:43:04.171Z,21.95
2022-09-25T11:45:36.448Z,22.04
2022-09-25T11:48:16.924Z,22.18
2022-09-25T11:50:52.492Z,22.18
2022-09-25T11:53:52.486Z,22.27
2022-09-25T11:56:22.503Z,22.21
2022-09-25T11:58:49.443Z,22.26
2022-09-25T12:01:40.723Z,22.21
2022-09-25T12:04:16.347Z,22.22
2022-09-25T12:06:55.840Z,22.44
2022-09-25T12:09:22.305Z,22.53
2022-09-25T12:12:01.723Z,22.51
2022-09-25T12:14:46.821Z,22.60
2022-09-25T12:17:25.476Z,22.33
2022-09-25T12:20:07.334Z,22.20
2022-09-25T12:22:36.772Z,22.08
2022-09-25T12:25:33.591Z,21.97
2022-09-25T12:28:25.050Z,21.98
2022-09-25T12:31:03.452Z,21.97
2022-09-25T12:33:56.411Z,22.05
2022-09-25T12:36:36.695Z,21.90
2022-09-25T12:39:28.379Z,22.02
2022-09-25T12:42:16.991Z,22.11
2022-09-25T12:45:09.599Z,21.96
2022-09-25T12:47:45.896Z,22.39
2022-09-25T12:50:17.752Z,22.56
2022-09-25T12:52:51.862Z,22.36
2022-09-25T12:55:26.360Z,22.33
2022-09-25T12:58:34.372Z,22.59
2022-09-25T13:01:11.886Z,22.37
2022-09-25T13:03:56.628Z,22.23
2022-09-25T13:06:59.654Z,22.14
2022-09-25T13:09:45.409Z,21.89
2022-09-25T13:12:26.309Z,21.79
2022-09-25T13:14:58.039Z,21.70
2022-09-25T13:17:24.637Z,21.63
2022-09-25T13:19:54.282Z,21.60
2022-09-25T13:22:25.413Z,21.54
2022-09-25T13:24:52.474Z,21.63
2022-09-25T13:27:22.448Z,21.48
2022-09-25T13:30:01.600Z,21.41
2022-09-25T13:32:34.685Z,21.25
2022-09-25T13:35:05.079Z,20.85
2022-09-25T13:37:33.847Z,20.11
2022-09-25T13:40:22.930Z,19.66
2022-09-25T13:42:49.501Z,19.96
2022-09-25T13:45:22.427Z,20.42
2022-09-25T13:47:54.855Z,20.70
2022-09-25T13:50:39.235Z,20.84
2022-09-25T13:53:17.913Z,21.48
2022-09-25T13:55:50.504Z,21.91
2022-09-25T13:58:20.002Z,21.94
2022-09-25T14:00:50.366Z,21.94
2022-09-25T14:03:35.634Z,22.26
2022-09-25T14:06:02.798Z,22.53
2022-09-25T14:08:34.731Z,22.68
2022-09-25T14:11:05.079Z,22.80
2022-09-25T14:13:32.266Z,23.17
2022-09-25T14:16:00.744Z,23.56
2022-09-25T14:18:37.242Z,23.73
2022-09-25T14:21:07.624Z,23.99
2022-09-25T14:23:34.151Z,24.26
2022-09-25T14:26:07.144Z,24.17
2022-09-25T14:28:46.029Z,24.34
2022-09-25T14:31:37.275Z,24.34
2022-09-25T14:34:13.359Z,24.45
2022-09-25T14:37:00.419Z,24.73
2022-09-25T14:39:51.902Z,24.81
2022-09-25T14:42:32.692Z,24.97
2022-09-25T14:45:20.767Z,25.20
2022-09-25T14:47:49.485Z,25.40
2022-09-25T14:50:23.882Z,25.54
2022-09-25T14:52:55.471Z,25.65
2022-09-25T14:55:22.890Z,25.58
2022-09-25T14:57:50.089Z,25.61
2022-09-25T15:00:18.270Z,25.38
2022-09-25T15:02:45.505Z,25.06
2022-09-25T15:05:27.322Z,24.60
2022-09-25T15:07:55.531Z,24.40
2022-09-25T15:10:31.010Z,24.42
2022-09-25T15:13:20.680Z,24.39
2022-09-25T15:16:07.807Z,24.63
2022-09-25T15:18:37.937Z,24.91
2022-09-25T15:21:07.982Z,24.87
2022-09-25T15:23:35.412Z,24.79
2022-09-25T15:26:02.074Z,24.89
2022-09-25T15:28:28.631Z,25.03
2022-09-25T15:31:00.495Z,25.08
2022-09-25T15:33:33.939Z,24.99
2022-09-25T15:36:03.466Z,24.73
2022-09-25T15:38:35.573Z,24.76
2022-09-25T15:41:07.197Z,25.05
2022-09-25T15:43:36.017Z,25.40
2022-09-25T15:46:08.897Z,25.63
2022-09-25T15:48:51.423Z,25.68
2022-09-25T15:51:21.267Z,25.20
2022-09-25T15:53:59.332Z,24.83
2022-09-25T15:56:47.090Z,24.57
2022-09-25T15:59:32.055Z,24.53
2022-09-25T16:02:18.852Z,24.80
2022-09-25T16:04:50.270Z,24.67
2022-09-25T16:07:36.679Z,24.39
2022-09-25T16:10:09.479Z,24.50
2022-09-25T16:12:42.359Z,24.86
2022-09-25T16:15:27.578Z,25.15
2022-09-25T16:18:04.374Z,25.21
2022-09-25T16:20:32.682Z,24.87
2022-09-25T16:23:04.206Z,24.67
2022-09-25T16:25:33.775Z,24.53
2022-09-25T16:28:15.903Z,24.31
2022-09-25T16:30:50.244Z,24.42
2022-09-25T16:33:23.651Z,24.46
2022-09-25T16:36:10.583Z,24.98
2022-09-25T16:38:41.321Z,24.24
2022-09-25T16:41:17.427Z,23.95
2022-09-25T16:43:43.978Z,23.88
2022-09-25T16:46:15.063Z,24.95
2022-09-25T16:48:42.423Z,24.34
2022-09-25T16:51:11.892Z,23.75
2022-09-25T16:53:39.979Z,23.59
2022-09-25T16:56:06.521Z,23.44
2022-09-25T16:58:33.105Z,23.30
2022-09-25T17:01:01.200Z,23.20
2022-09-25T17:03:47.827Z,23.12
2022-09-25T17:06:14.332Z,23.06
2022-09-25T17:08:40.839Z,22.98
2022-09-25T17:11:07.721Z,22.92
2022-09-25T17:13:36.620Z,22.87
2022-09-25T17:16:03.850Z,22.86
2022-09-25T17:18:33.430Z,22.82
2022-09-25T17:21:02.984Z,22.78
2022-09-25T17:23:29.684Z,22.75
2022-09-25T17:26:05.257Z,22.71
2022-09-25T17:28:35.184Z,22.63
2022-09-25T17:31:01.921Z,22.57
2022-09-25T17:33:28.600Z,22.56
2022-09-25T17:35:59.703Z,22.51
2022-09-25T17:38:27.104Z,22.54
2022-09-25T17:40:57.147Z,22.47
2022-09-25T17:43:25.875Z,22.37
2022-09-25T17:45:55.542Z,22.35
2022-09-25T17:48:25.014Z,22.34
2022-09-25T17:50:59.470Z,22.31
2022-09-25T17:53:28.884Z,22.27
2022-09-25T17:55:59.781Z,22.28
2022-09-25T17:58:27.701Z,22.21
2022-09-25T18:00:55.217Z,22.18
2022-09-25T18:03:21.891Z,22.08
2022-09-25T18:05:48.687Z,22.12
2022-09-25T18:08:15.527Z,22.05
2022-09-25T18:10:42.220Z,22.03
2022-09-25T18:13:14.254Z,21.98
2022-09-25T18:15:49.002Z,21.96
2022-09-25T18:18:15.881Z,22.03
2022-09-25T18:21:30.450Z,21.99
2022-09-25T18:23:59.207Z,21.88
2022-09-25T18:26:31.029Z,21.96
2022-09-25T18:28:58.079Z,21.94
2022-09-25T18:31:25.552Z,21.87
2022-09-25T18:33:54.850Z,21.80
2022-09-25T18:36:22.560Z,21.79
2022-09-25T18:38:49.572Z,21.72
2022-09-25T18:45:34.076Z,21.74
2022-09-25T18:48:02.177Z,21.70
2022-09-25T18:50:33.799Z,21.64
2022-09-25T18:57:31.233Z,21.59
2022-09-25T19:11:51.662Z,21.39
2022-09-25T19:14:20.174Z,21.31
2022-09-25T19:16:52.569Z,21.23
2022-09-25T19:19:19.361Z,21.26
2022-09-25T19:21:46.008Z,21.31
2022-09-25T19:24:12.780Z,21.26
2022-09-25T19:26:41.538Z,21.19
2022-09-25T19:29:08.539Z,21.22
2022-09-25T19:31:35.358Z,21.20
2022-09-25T19:34:02.801Z,21.14
2022-09-25T19:36:32.414Z,21.12
2022-09-25T19:38:59.974Z,20.99
2022-09-25T19:41:33.320Z,20.99
2022-09-25T19:44:11.207Z,21.00
2022-09-25T19:46:41.994Z,20.93
2022-09-25T19:49:11.824Z,20.88
2022-09-25T19:51:38.881Z,20.89
2022-09-25T19:54:07.478Z,20.96
2022-09-25T19:56:40.640Z,20.97
2022-09-25T19:59:09.517Z,20.93
2022-09-25T20:01:36.189Z,20.89
2022-09-25T20:04:07.956Z,20.86
2022-09-25T20:06:37.506Z,20.82
2022-09-25T20:09:04.650Z,20.85
2022-09-25T20:11:32.832Z,20.82
2022-09-25T20:14:01.677Z,20.81
2022-09-25T20:16:29.444Z,20.72
2022-09-25T20:19:00.236Z,20.66
2022-09-25T20:21:28.352Z,20.65
2022-09-25T20:24:03.796Z,20.66
2022-09-25T20:26:31.132Z,20.63
2022-09-25T20:29:01.607Z,20.57
2022-09-25T20:31:29.946Z,20.61
2022-09-25T20:33:56.520Z,20.64
2022-09-25T20:36:23.400Z,20.52
2022-09-25T20:38:51.249Z,20.49
2022-09-25T20:41:18.696Z,20.47
2022-09-25T20:43:49.472Z,20.39
2022-09-25T20:46:16.197Z,20.49
2022-09-25T20:48:47.221Z,20.52
2022-09-25T20:51:19.301Z,20.44
2022-09-25T20:53:51.042Z,20.42
2022-09-25T20:56:18.239Z,20.35
2022-09-25T20:58:49.486Z,20.27
2022-09-25T21:01:21.560Z,20.34
2022-09-25T21:03:49.172Z,20.35
2022-09-25T21:06:22.448Z,20.30
2022-09-25T21:09:19.618Z,20.28
2022-09-25T21:11:46.247Z,20.26
2022-09-25T21:15:01.887Z,20.25
2022-09-25T21:17:29.028Z,20.18
2022-09-25T21:19:55.813Z,20.17
2022-09-25T21:22:23.682Z,20.19
2022-09-25T21:24:52.362Z,20.11
2022-09-25T21:27:20.242Z,20.12
2022-09-25T21:29:46.977Z,20.12
2022-09-25T21:32:13.612Z,20.13
2022-09-25T21:34:41.464Z,19.97
2022-09-25T21:37:08.163Z,20.06
2022-09-25T21:39:34.762Z,20.03
2022-09-25T21:42:03.005Z,20.08
2022-09-25T21:44:29.646Z,20.08
2022-09-25T21:46:56.290Z,19.99
2022-09-25T21:49:24.354Z,20.02
2022-09-25T21:51:55.994Z,19.98
2022-09-25T21:54:23.168Z,19.96
2022-09-25T21:56:50.184Z,19.93
2022-09-25T21:59:21.667Z,19.89
2022-09-25T22:01:49.227Z,19.91
2022-09-25T22:04:16.560Z,19.92
2022-09-25T22:06:47.255Z,19.89
2022-09-25T22:09:27.036Z,19.87
2022-09-25T22:12:07.196Z,19.82
2022-09-25T22:14:34.116Z,19.81
2022-09-25T22:17:00.828Z,19.84
2022-09-25T22:19:29.619Z,19.85
2022-09-25T22:21:57.955Z,19.81
2022-09-25T22:24:28.456Z,19.78
2022-09-25T22:50:13.836Z,19.64
2022-09-25T22:52:45.041Z,19.58
2022-09-25T22:59:48.820Z,19.55
2022-09-25T23:02:21.217Z,19.53
2022-09-25T23:05:15.979Z,19.50
2022-09-25T23:07:43.257Z,19.47
2022-09-25T23:10:13.869Z,19.40
2022-09-25T23:12:45.041Z,19.43
2022-09-25T23:15:21.951Z,19.39
2022-09-25T23:17:50.856Z,19.40
2022-09-25T23:20:33.322Z,19.40
2022-09-25T23:26:11.246Z,19.35
2022-09-25T23:28:44.647Z,19.32
2022-09-25T23:34:06.960Z,19.29
2022-09-25T23:36:36.179Z,19.28
2022-09-25T23:39:07.282Z,19.26
2022-09-25T23:44:31.970Z,19.31
2022-09-25T23:47:05.173Z,19.24
2022-09-25T23:49:37.929Z,19.19
2022-09-25T23:52:09.836Z,19.20
2022-09-25T23:54:39.552Z,19.20
2022-09-25T23:57:12.388Z,19.16
2022-09-25T23:59:40.887Z,19.12
